Time;durP1;ratioP1;P1;durP2;ratioP2;P2;SDS_P1;SDS_P2;PMS_P1;PMS_P2;Temp;Humidity;BMP_temperature;BMP_pressure;BME280_temperature;BME280_humidity;BME280_pressure;Samples;Min_cycle;Max_cycle;Signal;HPM_P1;HPM_P2
2023/08/01 00:00:42;;;;;;;7.20;4.20;;;20.80;99.90;;;;;;5012317;28;20445;-53
2023/08/01 00:03:09;;;;;;;6.00;4.77;;;20.30;99.90;;;;;;5011793;28;20550;-54
2023/08/01 00:05:35;;;;;;;8.53;4.30;;;20.30;99.90;;;;;;5011638;28;21023;-53
2023/08/01 00:08:03;;;;;;;6.73;5.20;;;20.30;99.90;;;;;;5011453;28;20442;-53
2023/08/01 00:10:30;;;;;;;7.93;4.67;;;20.30;99.90;;;;;;5011739;28;20446;-53
2023/08/01 00:12:57;;;;;;;7.13;4.90;;;20.30;99.90;;;;;;5012336;28;20438;-52
2023/08/01 00:15:23;;;;;;;11.10;5.27;;;20.30;99.90;;;;;;5011786;28;20496;-55
2023/08/01 00:17:50;;;;;;;11.03;5.03;;;20.20;99.90;;;;;;5011456;28;20798;-52
2023/08/01 00:20:16;;;;;;;8.40;4.50;;;20.20;99.90;;;;;;5011682;28;20412;-53
2023/08/01 00:22:44;;;;;;;8.10;4.40;;;20.20;99.90;;;;;;5015311;28;20454;-52
2023/08/01 00:25:12;;;;;;;6.23;4.20;;;20.20;99.90;;;;;;5015395;28;20488;-54
2023/08/01 00:27:38;;;;;;;5.60;4.50;;;20.10;99.90;;;;;;5015029;28;20806;-52
2023/08/01 00:30:06;;;;;;;7.70;4.40;;;20.20;99.90;;;;;;5015717;28;20468;-52
2023/08/01 00:32:33;;;;;;;7.23;4.60;;;20.10;99.90;;;;;;5015222;28;20449;-52
2023/08/01 00:34:59;;;;;;;5.83;4.10;;;20.10;99.90;;;;;;5013887;28;20437;-54
2023/08/01 00:37:26;;;;;;;4.20;3.67;;;20.00;99.90;;;;;;5013549;28;20495;-54
2023/08/01 00:39:53;;;;;;;4.80;4.13;;;20.00;99.90;;;;;;5015154;28;20434;-52
2023/08/01 00:42:20;;;;;;;3.73;3.40;;;19.70;99.90;;;;;;5015043;28;20473;-53
2023/08/01 00:44:49;;;;;;;6.53;3.33;;;19.30;99.90;;;;;;5013638;28;21043;-55
2023/08/01 00:47:15;;;;;;;5.73;3.60;;;20.30;99.90;;;;;;5013309;28;20453;-53
2023/08/01 00:49:43;;;;;;;4.00;3.20;;;19.80;99.90;;;;;;5014862;28;20419;-53
2023/08/01 00:52:10;;;;;;;5.70;3.30;;;20.00;99.90;;;;;;5014851;28;20544;-53
2023/08/01 00:54:37;;;;;;;4.13;2.90;;;20.00;99.90;;;;;;5013509;28;20827;-54
2023/08/01 00:57:04;;;;;;;4.37;3.37;;;19.60;99.90;;;;;;5014419;28;20430;-53
2023/08/01 00:59:32;;;;;;;4.30;3.03;;;19.60;99.90;;;;;;5014402;28;20445;-54
2023/08/01 01:02:00;;;;;;;4.40;3.40;;;19.20;99.90;;;;;;5013235;28;20452;-52
2023/08/01 01:04:27;;;;;;;3.60;3.17;;;19.80;99.90;;;;;;5014558;28;20448;-54
2023/08/01 01:07:00;;;;;;;5.03;3.67;;;19.20;99.90;;;;;;5014456;28;20429;-52
2023/08/01 01:09:31;;;;;;;3.70;2.90;;;19.20;99.90;;;;;;5013518;28;20441;-53
2023/08/01 01:11:58;;;;;;;9.33;3.30;;;19.60;99.90;;;;;;5013358;28;20559;-55
2023/08/01 01:14:25;;;;;;;3.70;3.13;;;19.60;99.90;;;;;;5014771;28;20936;-55
2023/08/01 01:16:53;;;;;;;3.20;2.87;;;19.40;99.90;;;;;;5013025;28;20427;-53
2023/08/01 01:19:20;;;;;;;3.40;2.70;;;19.30;99.90;;;;;;5014460;28;20951;-53
2023/08/01 01:21:49;;;;;;;7.33;3.10;;;19.50;99.90;;;;;;5013168;28;20542;-55
2023/08/01 01:24:17;;;;;;;5.47;3.30;;;19.40;99.90;;;;;;5014459;28;20447;-53
2023/08/01 01:26:45;;;;;;;5.50;3.47;;;19.40;99.90;;;;;;5013953;28;20456;-54
2023/08/01 01:29:12;;;;;;;5.03;2.80;;;19.60;99.90;;;;;;5012948;28;20449;-55
2023/08/01 01:31:39;;;;;;;4.67;3.60;;;19.30;99.90;;;;;;5013964;28;20464;-56
2023/08/01 01:34:06;;;;;;;4.67;3.80;;;19.30;99.90;;;;;;5012769;28;20452;-54
2023/08/01 01:36:34;;;;;;;4.33;3.43;;;19.70;99.90;;;;;;5012603;28;20990;-55
2023/08/01 01:39:02;;;;;;;3.93;3.53;;;19.20;99.90;;;;;;5013846;28;20447;-53
2023/08/01 01:41:28;;;;;;;5.57;3.80;;;19.40;99.90;;;;;;5013767;28;20530;-54
2023/08/01 01:43:55;;;;;;;5.57;3.37;;;19.20;99.90;;;;;;5012800;28;20440;-53
2023/08/01 01:46:21;;;;;;;4.90;3.60;;;19.40;99.90;;;;;;5013916;28;20452;-54
2023/08/01 01:48:48;;;;;;;6.23;3.40;;;19.10;99.90;;;;;;5013395;28;20458;-53
2023/08/01 01:51:15;;;;;;;5.83;3.97;;;19.30;99.90;;;;;;5012392;28;20434;-54
2023/08/01 01:53:41;;;;;;;11.13;4.93;;;19.70;99.90;;;;;;5013809;28;20814;-55
2023/08/01 01:56:09;;;;;;;10.30;4.50;;;19.50;99.90;;;;;;5012536;28;20544;-54
2023/08/01 01:58:36;;;;;;;7.00;4.83;;;19.00;99.90;;;;;;5011998;28;20456;-55
2023/08/01 02:01:03;;;;;;;4.33;3.60;;;19.10;99.90;;;;;;5012211;28;20467;-52
2023/08/01 02:03:29;;;;;;;5.00;3.70;;;19.20;99.90;;;;;;5013452;28;20429;-52
2023/08/01 02:05:56;;;;;;;6.63;4.60;;;19.50;99.90;;;;;;5013401;28;20463;-53
2023/08/01 02:08:23;;;;;;;6.70;4.20;;;19.30;99.90;;;;;;5012314;28;20840;-53
2023/08/01 02:10:49;;;;;;;7.77;4.47;;;19.10;99.90;;;;;;5012132;28;20827;-53
2023/08/01 02:13:18;;;;;;;6.53;4.40;;;19.20;99.90;;;;;;5012216;28;20456;-53
2023/08/01 02:15:44;;;;;;;5.63;4.00;;;19.50;99.90;;;;;;5012261;28;20433;-53
2023/08/01 02:18:11;;;;;;;7.93;3.93;;;19.30;99.90;;;;;;5011613;28;20423;-52
2023/08/01 02:20:38;;;;;;;7.20;4.33;;;19.20;99.90;;;;;;5011884;28;21018;-52
2023/08/01 02:23:04;;;;;;;6.47;4.70;;;19.10;99.90;;;;;;5013500;28;20424;-54
2023/08/01 02:25:31;;;;;;;5.67;4.17;;;19.20;99.90;;;;;;5011855;28;20559;-53
2023/08/01 02:27:57;;;;;;;5.13;4.00;;;19.30;99.90;;;;;;5011525;28;20458;-53
2023/08/01 02:30:25;;;;;;;5.17;3.87;;;19.10;99.90;;;;;;5011701;28;20941;-54
2023/08/01 02:32:52;;;;;;;7.43;3.70;;;19.20;99.90;;;;;;5013143;28;20506;-53
2023/08/01 02:35:19;;;;;;;4.40;4.00;;;19.30;99.90;;;;;;5012989;28;20438;-55
2023/08/01 02:37:45;;;;;;;6.03;4.47;;;19.50;99.90;;;;;;5012634;28;20428;-54
2023/08/01 02:40:13;;;;;;;4.13;3.70;;;19.10;99.90;;;;;;5012883;28;20436;-54
2023/08/01 02:42:39;;;;;;;4.20;3.53;;;19.20;99.90;;;;;;5012788;28;20471;-54
2023/08/01 02:45:06;;;;;;;4.87;4.03;;;19.40;99.90;;;;;;5012049;28;20439;-55
2023/08/01 02:47:34;;;;;;;7.30;5.23;;;19.10;99.90;;;;;;5012358;28;20790;-54
2023/08/01 02:50:01;;;;;;;4.63;4.10;;;19.30;99.90;;;;;;5011492;28;20993;-54
2023/08/01 02:52:28;;;;;;;6.20;4.00;;;19.20;99.90;;;;;;5012618;28;20457;-53
2023/08/01 02:54:55;;;;;;;8.00;4.10;;;19.10;99.90;;;;;;5011326;28;20467;-56
2023/08/01 02:57:21;;;;;;;5.80;4.30;;;19.30;99.90;;;;;;5012457;28;20428;-54
2023/08/01 02:59:48;;;;;;;7.50;5.20;;;19.30;99.90;;;;;;5012543;28;20436;-53
2023/08/01 03:02:14;;;;;;;5.30;4.20;;;19.30;99.90;;;;;;5011153;28;20476;-53
2023/08/01 03:04:42;;;;;;;5.47;4.00;;;18.70;99.90;;;;;;5012903;28;20452;-55
2023/08/01 03:07:09;;;;;;;5.67;4.77;;;19.10;99.90;;;;;;5010748;28;20482;-53
2023/08/01 03:09:35;;;;;;;5.43;4.47;;;18.80;99.90;;;;;;5012600;28;20946;-53
2023/08/01 03:12:02;;;;;;;7.13;4.07;;;18.60;99.90;;;;;;5011112;28;20562;-52
2023/08/01 03:14:29;;;;;;;8.33;4.77;;;19.10;99.90;;;;;;5012963;28;20444;-53
2023/08/01 03:16:55;;;;;;;5.73;5.10;;;18.70;99.90;;;;;;5011855;28;20441;-54
2023/08/01 03:19:24;;;;;;;5.50;4.70;;;18.60;99.90;;;;;;5012185;28;20453;-53
2023/08/01 03:21:51;;;;;;;5.33;4.10;;;19.10;99.90;;;;;;5013523;28;20475;-54
2023/08/01 03:24:18;;;;;;;7.90;5.37;;;19.40;99.90;;;;;;5012120;28;20986;-54
2023/08/01 03:26:45;;;;;;;6.03;4.90;;;19.00;99.90;;;;;;5012077;28;20850;-53
2023/08/01 03:29:11;;;;;;;5.67;4.30;;;19.10;99.90;;;;;;5012405;28;20459;-52
2023/08/01 03:31:38;;;;;;;6.23;4.30;;;19.10;99.90;;;;;;5012311;28;20525;-54
2023/08/01 03:34:08;;;;;;;6.93;4.40;;;19.30;99.90;;;;;;5011927;28;20451;-53
2023/08/01 03:36:36;;;;;;;7.23;4.30;;;19.50;99.90;;;;;;5010609;28;20464;-55
2023/08/01 03:39:04;;;;;;;6.37;4.63;;;19.00;99.90;;;;;;5010940;28;20480;-54
2023/08/01 03:41:32;;;;;;;6.77;4.00;;;19.10;99.90;;;;;;5012402;28;20472;-56
2023/08/01 03:43:59;;;;;;;6.40;4.90;;;19.30;99.90;;;;;;5012415;28;20432;-57
2023/08/01 03:46:25;;;;;;;4.93;4.27;;;19.20;99.90;;;;;;5010585;28;20503;-57
2023/08/01 03:48:52;;;;;;;6.17;4.53;;;18.90;99.90;;;;;;5011731;28;20448;-55
2023/08/01 03:51:19;;;;;;;5.83;4.33;;;18.90;99.90;;;;;;5011852;28;20456;-56
2023/08/01 03:53:46;;;;;;;7.47;4.87;;;19.40;99.90;;;;;;5011005;28;20530;-56
2023/08/01 03:56:14;;;;;;;8.43;4.83;;;19.30;99.90;;;;;;5013576;28;20445;-56
2023/08/01 03:58:40;;;;;;;5.30;4.80;;;18.70;99.90;;;;;;5014202;28;20437;-53
2023/08/01 04:01:11;;;;;;;5.60;3.87;;;19.30;99.90;;;;;;5015931;28;20546;-56
2023/08/01 04:03:37;;;;;;;7.00;4.90;;;18.80;99.90;;;;;;5015975;28;20440;-55
2023/08/01 04:06:05;;;;;;;5.07;4.27;;;19.00;99.90;;;;;;5014610;28;20996;-58
2023/08/01 04:08:32;;;;;;;6.27;4.27;;;19.30;99.90;;;;;;5015198;28;20966;-57
2023/08/01 04:10:58;;;;;;;9.13;5.20;;;19.50;99.90;;;;;;5015480;28;20456;-57
2023/08/01 04:13:26;;;;;;;5.70;4.23;;;19.50;99.90;;;;;;5015482;28;20441;-55
2023/08/01 04:15:53;;;;;;;12.23;4.33;;;19.40;99.90;;;;;;5015379;28;20487;-55
2023/08/01 04:18:19;;;;;;;6.17;4.80;;;19.50;99.90;;;;;;5015113;28;20440;-57
2023/08/01 04:20:47;;;;;;;6.20;3.87;;;19.60;99.90;;;;;;5015612;28;20965;-56
2023/08/01 04:23:13;;;;;;;5.83;4.40;;;18.90;99.90;;;;;;5015133;28;20803;-56
2023/08/01 04:25:42;;;;;;;7.83;4.57;;;19.20;99.90;;;;;;5014853;28;20447;-58
2023/08/01 04:28:08;;;;;;;5.23;4.23;;;19.40;99.90;;;;;;5014709;28;20437;-55
2023/08/01 04:30:38;;;;;;;5.20;4.43;;;19.30;99.90;;;;;;5015171;28;20443;-58
2023/08/01 04:33:04;;;;;;;5.43;4.23;;;19.70;99.90;;;;;;5015288;28;20947;-58
2023/08/01 04:35:31;;;;;;;9.60;4.00;;;19.70;99.90;;;;;;5014903;28;20432;-57
2023/08/01 04:37:58;;;;;;;6.30;4.13;;;19.40;99.90;;;;;;5014725;28;20935;-56
2023/08/01 04:40:24;;;;;;;6.47;4.40;;;19.30;99.90;;;;;;5015178;28;20433;-57
2023/08/01 04:42:51;;;;;;;5.27;3.50;;;19.40;99.90;;;;;;5013833;28;20895;-56
2023/08/01 04:45:18;;;;;;;4.57;3.83;;;19.40;99.90;;;;;;5015038;28;20531;-57
2023/08/01 04:47:45;;;;;;;5.77;3.80;;;19.70;99.90;;;;;;5014470;28;20490;-56
2023/08/01 04:50:12;;;;;;;5.20;4.30;;;19.70;99.90;;;;;;5014706;28;20437;-55
2023/08/01 04:52:39;;;;;;;4.60;3.83;;;19.30;99.90;;;;;;5014710;28;20457;-57
2023/08/01 04:55:06;;;;;;;5.80;3.63;;;19.00;99.90;;;;;;5013270;28;20449;-57
2023/08/01 04:57:33;;;;;;;6.20;4.20;;;19.40;99.90;;;;;;5014433;28;20447;-55
2023/08/01 05:00:00;;;;;;;5.30;4.03;;;19.30;99.90;;;;;;5014681;28;20437;-57
2023/08/01 05:02:26;;;;;;;4.70;3.47;;;19.80;99.90;;;;;;5014539;28;20456;-56
2023/08/01 05:04:54;;;;;;;5.57;3.57;;;19.50;99.90;;;;;;5014451;28;20970;-57
2023/08/01 05:07:21;;;;;;;6.00;3.90;;;19.30;99.90;;;;;;5013399;28;20556;-56
2023/08/01 05:09:47;;;;;;;4.70;4.13;;;19.40;99.90;;;;;;5014438;28;20923;-56
2023/08/01 05:12:14;;;;;;;5.70;4.40;;;19.40;99.90;;;;;;5014318;28;20482;-57
2023/08/01 05:14:41;;;;;;;7.17;3.30;;;19.50;99.90;;;;;;5014408;28;20438;-56
2023/08/01 05:17:07;;;;;;;4.10;3.80;;;19.70;99.90;;;;;;5012489;28;20556;-57
2023/08/01 05:19:34;;;;;;;6.20;3.87;;;19.90;99.90;;;;;;5014149;28;20441;-57
2023/08/01 05:22:02;;;;;;;4.13;3.73;;;19.50;99.90;;;;;;5014228;28;20453;-56
2023/08/01 05:24:28;;;;;;;6.10;3.50;;;19.50;99.90;;;;;;5014284;28;20466;-56
2023/08/01 05:26:55;;;;;;;6.10;3.73;;;19.80;99.90;;;;;;5013791;28;20455;-56
2023/08/01 05:29:22;;;;;;;7.20;4.30;;;19.70;99.90;;;;;;5014433;28;20973;-58
2023/08/01 05:31:48;;;;;;;5.73;3.73;;;19.10;99.90;;;;;;5013933;28;20805;-56
2023/08/01 05:34:15;;;;;;;5.57;4.57;;;19.80;99.90;;;;;;5013874;28;20777;-58
2023/08/01 05:36:42;;;;;;;7.60;6.07;;;19.30;99.90;;;;;;5013713;28;20444;-56
2023/08/01 05:39:10;;;;;;;6.30;4.77;;;19.60;99.90;;;;;;5014031;28;20520;-57
2023/08/01 05:41:37;;;;;;;5.00;3.97;;;19.40;99.90;;;;;;5013719;28;20812;-57
2023/08/01 05:44:04;;;;;;;5.93;4.00;;;19.50;99.90;;;;;;5013642;28;20500;-56
2023/08/01 05:46:31;;;;;;;5.10;3.90;;;19.70;99.90;;;;;;5013129;28;20481;-53
2023/08/01 05:48:57;;;;;;;7.10;4.13;;;19.80;99.90;;;;;;5013380;28;20414;-56
2023/08/01 05:51:24;;;;;;;5.97;4.07;;;19.80;99.90;;;;;;5013184;28;20454;-60
2023/08/01 05:53:51;;;;;;;6.17;3.77;;;20.10;99.90;;;;;;5013602;28;20438;-57
2023/08/01 05:56:18;;;;;;;5.30;4.10;;;19.40;99.90;;;;;;5013631;28;20472;-55
2023/08/01 05:58:45;;;;;;;5.60;4.20;;;19.70;99.90;;;;;;5012953;28;20432;-55
2023/08/01 06:01:12;;;;;;;6.80;4.17;;;19.40;99.90;;;;;;5013443;28;20987;-57
2023/08/01 06:03:39;;;;;;;6.37;3.90;;;19.80;99.90;;;;;;5013496;28;20451;-56
2023/08/01 06:06:06;;;;;;;5.90;4.27;;;19.80;99.90;;;;;;5011769;28;20456;-55
2023/08/01 06:08:32;;;;;;;5.37;4.00;;;19.80;99.90;;;;;;5013149;28;20441;-56
2023/08/01 06:10:59;;;;;;;11.33;5.93;;;19.80;99.90;;;;;;5013111;28;20461;-56
2023/08/01 06:13:27;;;;;;;5.27;4.10;;;19.80;99.90;;;;;;5011949;28;20449;-57
2023/08/01 06:15:54;;;;;;;5.33;4.10;;;20.10;99.90;;;;;;5013288;28;20806;-55
2023/08/01 06:18:20;;;;;;;8.60;3.93;;;19.80;99.90;;;;;;5011702;28;20404;-55
2023/08/01 06:20:47;;;;;;;4.53;3.27;;;19.80;99.90;;;;;;5012945;28;20443;-56
2023/08/01 06:23:13;;;;;;;8.37;5.00;;;20.10;99.90;;;;;;5012852;28;20435;-56
2023/08/01 06:25:40;;;;;;;3.90;3.50;;;19.90;99.90;;;;;;5012990;28;20438;-56
2023/08/01 06:28:07;;;;;;;7.33;3.50;;;19.90;99.90;;;;;;5012460;28;20473;-57
2023/08/01 06:30:34;;;;;;;6.90;4.60;;;19.90;99.90;;;;;;5012639;28;20436;-56
2023/08/01 06:33:01;;;;;;;4.40;4.00;;;20.20;99.90;;;;;;5012681;28;20438;-57
2023/08/01 06:35:28;;;;;;;7.03;4.20;;;20.10;99.90;;;;;;5012838;28;20434;-56
2023/08/01 06:37:54;;;;;;;5.10;4.07;;;20.10;99.90;;;;;;5012369;28;20434;-57
2023/08/01 06:40:21;;;;;;;10.70;4.30;;;20.00;99.90;;;;;;5012830;28;20431;-56
2023/08/01 06:42:47;;;;;;;6.10;3.40;;;19.90;99.90;;;;;;5012423;28;20474;-57
2023/08/01 06:45:14;;;;;;;4.60;3.50;;;20.10;99.90;;;;;;5012692;28;20442;-56
2023/08/01 06:47:42;;;;;;;6.20;3.40;;;20.10;99.90;;;;;;5011959;28;20490;-58
2023/08/01 06:50:10;;;;;;;7.50;3.67;;;20.40;99.90;;;;;;5012395;28;20526;-58
2023/08/01 06:52:36;;;;;;;5.70;3.53;;;20.20;99.90;;;;;;5012063;28;20462;-57
2023/08/01 06:55:03;;;;;;;8.73;4.27;;;20.20;99.90;;;;;;5012148;28;20433;-56
2023/08/01 06:57:30;;;;;;;7.53;3.43;;;20.20;99.90;;;;;;5011841;28;20949;-58
2023/08/01 06:59:57;;;;;;;9.03;3.20;;;20.10;99.90;;;;;;5012242;28;20956;-55
2023/08/01 07:02:25;;;;;;;5.73;3.90;;;19.90;99.90;;;;;;5012078;28;20462;-56
2023/08/01 07:04:53;;;;;;;5.00;3.30;;;20.70;99.90;;;;;;5012476;28;20455;-55
2023/08/01 07:07:19;;;;;;;7.30;4.07;;;20.30;99.90;;;;;;5011607;28;20452;-58
2023/08/01 07:09:46;;;;;;;6.80;3.73;;;20.60;99.90;;;;;;5012169;28;20439;-58
2023/08/01 07:12:12;;;;;;;4.57;4.00;;;20.30;99.90;;;;;;5011983;28;20550;-58
2023/08/01 07:14:39;;;;;;;5.67;3.00;;;20.30;99.90;;;;;;5011960;28;20438;-56
2023/08/01 07:17:06;;;;;;;8.90;3.40;;;20.60;99.90;;;;;;5011317;28;20457;-56
2023/08/01 07:19:33;;;;;;;4.70;3.27;;;20.70;99.90;;;;;;5010736;28;20538;-58
2023/08/01 07:22:01;;;;;;;4.10;3.13;;;20.30;99.90;;;;;;5011759;28;20542;-57
2023/08/01 07:24:27;;;;;;;4.77;3.33;;;20.60;99.90;;;;;;5011907;28;20457;-55
2023/08/01 07:26:54;;;;;;;4.63;3.80;;;20.60;99.90;;;;;;5009842;28;20457;-59
2023/08/01 07:29:20;;;;;;;5.00;3.00;;;20.70;99.90;;;;;;5011428;28;20431;-58
2023/08/01 07:31:47;;;;;;;4.33;3.27;;;20.90;99.90;;;;;;5011893;28;20501;-57
2023/08/01 07:34:13;;;;;;;3.40;2.73;;;20.70;99.90;;;;;;5011988;28;20438;-56
2023/08/01 07:36:40;;;;;;;4.80;2.90;;;20.90;99.90;;;;;;5011153;28;20447;-57
2023/08/01 07:39:08;;;;;;;6.93;3.13;;;21.00;99.90;;;;;;5011688;28;20458;-57
2023/08/01 07:41:35;;;;;;;3.27;2.70;;;21.20;99.90;;;;;;5011567;28;20992;-58
2023/08/01 07:44:02;;;;;;;4.20;3.50;;;21.10;99.90;;;;;;5012110;28;20440;-57
2023/08/01 07:46:29;;;;;;;3.20;2.70;;;21.30;99.90;;;;;;5011783;28;20441;-56
2023/08/01 07:48:56;;;;;;;5.70;4.10;;;21.30;99.90;;;;;;5011736;28;20439;-55
2023/08/01 07:51:22;;;;;;;5.20;2.90;;;21.50;99.90;;;;;;5011595;28;20467;-57
2023/08/01 07:53:51;;;;;;;4.80;3.00;;;21.60;99.90;;;;;;5011663;28;20444;-57
2023/08/01 07:56:19;;;;;;;4.63;3.23;;;21.60;99.90;;;;;;5011471;28;20451;-58
2023/08/01 07:58:46;;;;;;;3.67;3.07;;;21.70;99.90;;;;;;5011543;28;20920;-57
2023/08/01 08:01:12;;;;;;;5.53;2.97;;;21.80;99.90;;;;;;5011621;28;20463;-57
2023/08/01 08:03:39;;;;;;;7.50;4.10;;;21.90;99.90;;;;;;5011375;28;20440;-58
2023/08/01 08:06:05;;;;;;;3.33;2.50;;;21.50;99.90;;;;;;5011425;28;20847;-58
2023/08/01 08:08:33;;;;;;;3.30;2.70;;;22.10;99.90;;;;;;5011139;28;20520;-58
2023/08/01 08:11:00;;;;;;;6.03;3.00;;;21.90;99.90;;;;;;5011809;28;20487;-56
2023/08/01 08:13:28;;;;;;;5.00;2.50;;;21.60;99.90;;;;;;5011196;28;20793;-58
2023/08/01 08:15:56;;;;;;;3.80;2.80;;;22.30;99.90;;;;;;5011658;28;20429;-57
2023/08/01 08:18:23;;;;;;;6.10;3.07;;;22.10;99.90;;;;;;5011123;28;20923;-57
2023/08/01 08:20:50;;;;;;;4.00;3.60;;;22.40;99.90;;;;;;5011051;28;20452;-57
2023/08/01 08:23:17;;;;;;;4.63;4.03;;;22.30;99.90;;;;;;5011337;28;20955;-58
2023/08/01 08:25:44;;;;;;;3.90;2.70;;;22.60;99.90;;;;;;5009867;28;20978;-55
2023/08/01 08:28:12;;;;;;;4.60;2.80;;;22.40;99.90;;;;;;5011173;28;20573;-55
2023/08/01 08:30:40;;;;;;;6.00;3.13;;;22.60;99.90;;;;;;5011262;28;20450;-58
2023/08/01 08:33:06;;;;;;;5.00;2.57;;;22.40;99.90;;;;;;5011156;28;20818;-58
2023/08/01 08:35:34;;;;;;;6.67;2.80;;;22.70;99.90;;;;;;5011214;28;20434;-56
2023/08/01 08:38:03;;;;;;;4.50;2.73;;;22.20;99.90;;;;;;5010949;28;20447;-57
2023/08/01 08:40:30;;;;;;;3.50;2.37;;;22.30;99.90;;;;;;5011067;28;20459;-58
2023/08/01 08:43:00;;;;;;;4.03;2.50;;;22.90;99.90;;;;;;5013413;28;20468;-58
2023/08/01 08:45:28;;;;;;;4.47;2.90;;;23.10;99.90;;;;;;5014637;28;20453;-58
2023/08/01 08:47:59;;;;;;;3.70;2.30;;;22.80;99.90;;;;;;5014303;28;20489;-56
2023/08/01 08:50:26;;;;;;;4.07;2.60;;;23.30;99.90;;;;;;5014626;28;21006;-56
2023/08/01 08:52:53;;;;;;;5.17;2.43;;;23.40;99.90;;;;;;5014290;28;20783;-56
2023/08/01 08:55:22;;;;;;;3.80;1.90;;;23.60;99.90;;;;;;5014612;28;20785;-56
2023/08/01 08:57:50;;;;;;;4.00;3.07;;;23.60;99.90;;;;;;5014001;28;20536;-56
2023/08/01 09:00:18;;;;;;;4.40;2.20;;;23.70;99.90;;;;;;5014313;28;20954;-56
2023/08/01 09:02:45;;;;;;;2.80;2.30;;;23.70;99.90;;;;;;5014500;28;21009;-57
2023/08/01 09:05:13;;;;;;;5.83;2.07;;;23.60;99.90;;;;;;5014387;28;20435;-56
2023/08/01 09:07:43;;;;;;;7.73;2.27;;;23.60;99.90;;;;;;5012426;28;20572;-56
2023/08/01 09:10:10;;;;;;;3.03;2.20;;;23.50;99.90;;;;;;5014337;28;20498;-56
2023/08/01 09:12:37;;;;;;;2.80;2.17;;;23.60;99.90;;;;;;5014424;28;20459;-57
2023/08/01 09:15:05;;;;;;;5.40;2.03;;;23.60;99.90;;;;;;5014122;28;20482;-57
2023/08/01 09:17:31;;;;;;;2.47;1.70;;;23.70;99.90;;;;;;5013911;28;20443;-57
2023/08/01 09:20:05;;;;;;;3.00;2.37;;;23.90;99.90;;;;;;5014391;28;20443;-59
2023/08/01 09:22:42;;;;;;;1.77;1.40;;;24.00;99.90;;;;;;5013743;28;20513;-58
2023/08/01 09:25:09;;;;;;;2.63;1.70;;;24.00;99.90;;;;;;5013881;28;20435;-58
2023/08/01 09:27:35;;;;;;;2.33;1.50;;;24.30;99.90;;;;;;5013337;28;20475;-57
2023/08/01 09:30:15;;;;;;;2.07;1.53;;;24.50;99.90;;;;;;5014025;28;20947;-57
2023/08/01 09:32:52;;;;;;;2.40;1.87;;;24.60;99.90;;;;;;5014168;28;20849;-58
2023/08/01 09:35:19;;;;;;;2.23;1.40;;;24.60;99.90;;;;;;5013656;28;20472;-57
2023/08/01 09:37:47;;;;;;;2.33;1.57;;;24.60;99.90;;;;;;5013413;28;20432;-57
2023/08/01 09:40:16;;;;;;;3.40;1.53;;;24.60;99.90;;;;;;5013498;28;20766;-57
2023/08/01 09:42:44;;;;;;;2.53;1.80;;;24.50;99.90;;;;;;5024473;22;20599;-51
2023/08/01 09:45:15;;;;;;;2.97;1.70;;;24.40;99.90;;;;;;4993533;28;20445;-50
2023/08/01 09:47:42;;;;;;;2.10;1.23;;;24.20;99.90;;;;;;4993373;28;20483;-51
2023/08/01 09:50:10;;;;;;;2.30;1.47;;;24.10;99.90;;;;;;4993596;28;20461;-50
2023/08/01 09:52:38;;;;;;;5.37;1.30;;;24.00;99.90;;;;;;4993173;28;20492;-50
2023/08/01 09:55:06;;;;;;;1.60;1.00;;;23.90;99.90;;;;;;4993570;28;20467;-51
2023/08/01 09:57:36;;;;;;;2.60;1.37;;;23.80;99.90;;;;;;4993183;28;20441;-49
2023/08/01 10:00:04;;;;;;;3.37;1.27;;;23.70;99.90;;;;;;4993551;28;20428;-49
2023/08/01 10:02:43;;;;;;;3.07;1.70;;;23.70;99.90;;;;;;4993349;28;20450;-50
2023/08/01 10:05:12;;;;;;;1.40;1.10;;;23.70;99.90;;;;;;4993432;28;20442;-50
2023/08/01 10:07:41;;;;;;;3.83;2.20;;;23.90;99.90;;;;;;4992958;28;20572;-51
2023/08/01 10:10:10;;;;;;;2.50;1.20;;;23.90;99.90;;;;;;4993061;28;20408;-49
2023/08/01 10:12:38;;;;;;;3.70;1.20;;;23.90;99.90;;;;;;4991467;28;20477;-51
2023/08/01 10:15:06;;;;;;;5.70;3.33;;;23.90;99.90;;;;;;4993093;28;20495;-50
2023/08/01 10:17:36;;;;;;;4.80;1.60;;;23.80;99.90;;;;;;4991308;28;20460;-50
2023/08/01 10:20:03;;;;;;;2.30;1.50;;;23.60;99.90;;;;;;4991183;28;20442;-50
2023/08/01 10:22:30;;;;;;;4.47;1.50;;;23.60;99.90;;;;;;4992667;28;20457;-50
2023/08/01 10:24:57;;;;;;;1.80;1.27;;;23.40;99.90;;;;;;4991712;28;20441;-50
2023/08/01 10:27:25;;;;;;;3.13;1.77;;;23.30;99.90;;;;;;4992567;28;20436;-51
2023/08/01 10:29:58;;;;;;;5.60;1.10;;;23.20;99.90;;;;;;4992598;28;20831;-50
2023/08/01 10:32:33;;;;;;;2.57;1.40;;;23.20;99.90;;;;;;4992861;28;20461;-50
2023/08/01 10:35:00;;;;;;;2.73;1.40;;;23.20;99.90;;;;;;4992597;28;20448;-51
2023/08/01 10:37:27;;;;;;;2.00;1.40;;;23.20;99.90;;;;;;4992134;28;20440;-50
2023/08/01 10:40:00;;;;;;;6.23;1.30;;;23.10;99.90;;;;;;4992518;28;20467;-51
2023/08/01 10:42:39;;;;;;;2.80;1.17;;;23.20;99.90;;;;;;4992366;28;20482;-50
2023/08/01 10:45:06;;;;;;;2.47;1.17;;;22.90;99.90;;;;;;4992568;28;20532;-50
2023/08/01 10:47:32;;;;;;;2.77;1.60;;;23.00;99.90;;;;;;4992330;28;20798;-50
2023/08/01 10:49:59;;;;;;;3.13;1.57;;;22.60;99.90;;;;;;4992453;28;20438;-50
2023/08/01 10:52:27;;;;;;;6.43;1.77;;;22.50;99.90;;;;;;4990702;28;20486;-50
2023/08/01 10:54:59;;;;;;;2.43;1.30;;;22.60;99.90;;;;;;4992280;28;20433;-50
2023/08/01 10:57:27;;;;;;;2.57;1.50;;;22.50;99.90;;;;;;4992330;28;20458;-50
2023/08/01 10:59:56;;;;;;;4.33;1.80;;;22.40;99.90;;;;;;4992272;28;20439;-51
2023/08/01 11:02:24;;;;;;;2.23;1.40;;;22.20;99.90;;;;;;4991972;28;20481;-50
2023/08/01 11:05:02;;;;;;;3.83;1.60;;;22.50;99.90;;;;;;4991090;28;20920;-50
2023/08/01 11:07:30;;;;;;;4.40;1.97;;;22.50;99.90;;;;;;4991493;28;20860;-50
2023/08/01 11:10:07;;;;;;;4.13;1.60;;;22.40;99.90;;;;;;4992116;28;20570;-51
2023/08/01 11:12:36;;;;;;;3.00;2.07;;;22.40;99.90;;;;;;4992207;28;20475;-51
2023/08/01 11:15:05;;;;;;;3.90;1.73;;;22.40;99.90;;;;;;4991870;28;20801;-51
2023/08/01 11:17:32;;;;;;;4.87;1.80;;;22.20;99.90;;;;;;4991598;28;20430;-50
2023/08/01 11:20:05;;;;;;;4.37;2.80;;;22.10;99.90;;;;;;4991514;28;20531;-49
2023/08/01 11:22:31;;;;;;;6.73;1.53;;;22.00;99.90;;;;;;4991758;28;20462;-49
2023/08/01 11:24:58;;;;;;;3.70;1.33;;;22.00;99.90;;;;;;4992012;28;20442;-52
2023/08/01 11:27:25;;;;;;;3.83;1.80;;;22.10;99.90;;;;;;4991445;28;20429;-50
2023/08/01 11:29:52;;;;;;;3.70;2.20;;;22.10;99.90;;;;;;4991912;28;20925;-51
2023/08/01 11:32:21;;;;;;;2.60;1.67;;;22.00;99.90;;;;;;4991647;28;20481;-51
2023/08/01 11:34:48;;;;;;;4.20;1.50;;;22.30;99.90;;;;;;4991917;28;20782;-50
2023/08/01 11:37:16;;;;;;;2.60;2.00;;;22.30;99.90;;;;;;4991321;28;20442;-51
2023/08/01 11:39:43;;;;;;;3.20;2.23;;;22.40;99.90;;;;;;4992096;28;20878;-52
2023/08/01 11:42:16;;;;;;;4.63;2.70;;;22.60;99.90;;;;;;4992038;28;21029;-49
2023/08/01 11:44:42;;;;;;;4.37;3.07;;;22.70;99.90;;;;;;4992455;28;20458;-46
2023/08/01 11:47:12;;;;;;;6.43;3.13;;;22.90;99.90;;;;;;4992090;28;20451;-47
2023/08/01 11:49:45;;;;;;;5.03;2.70;;;23.00;99.90;;;;;;4992408;28;20486;-46
2023/08/01 11:52:23;;;;;;;5.63;2.90;;;23.20;99.90;;;;;;4992753;28;20496;-48
2023/08/01 11:54:50;;;;;;;4.57;3.17;;;23.40;99.90;;;;;;4992852;28;20436;-45
2023/08/01 11:57:16;;;;;;;3.60;2.97;;;23.60;99.90;;;;;;4991963;28;20448;-48
2023/08/01 11:59:50;;;;;;;4.87;2.70;;;23.70;99.90;;;;;;4992845;28;20441;-47
2023/08/01 12:02:27;;;;;;;3.30;2.70;;;23.80;99.90;;;;;;4992654;28;20504;-47
2023/08/01 12:04:55;;;;;;;4.50;3.00;;;23.90;99.90;;;;;;4992342;28;20441;-46
2023/08/01 12:07:25;;;;;;;5.13;3.23;;;23.90;99.90;;;;;;4991579;28;20459;-46
2023/08/01 12:09:58;;;;;;;4.90;3.60;;;23.90;99.90;;;;;;4992156;28;20484;-47
2023/08/01 12:12:27;;;;;;;4.93;3.40;;;24.00;99.90;;;;;;4992304;28;20446;-47
2023/08/01 12:14:54;;;;;;;4.80;4.30;;;24.10;99.90;;;;;;4991852;28;20438;-45
2023/08/01 12:17:20;;;;;;;6.30;4.07;;;23.80;99.90;;;;;;4992653;28;20531;-49
2023/08/01 12:19:47;;;;;;;4.77;4.10;;;24.10;99.90;;;;;;4995328;28;20435;-46
2023/08/01 12:22:15;;;;;;;7.03;3.60;;;24.40;99.90;;;;;;4995304;28;20450;-52
2023/08/01 12:24:42;;;;;;;6.47;3.90;;;24.50;99.90;;;;;;4995420;28;20777;-51
2023/08/01 12:27:09;;;;;;;7.90;4.97;;;24.50;99.90;;;;;;4995492;28;20460;-49
2023/08/01 12:29:36;;;;;;;6.67;3.50;;;24.40;99.90;;;;;;4994846;28;20511;-51
2023/08/01 12:32:03;;;;;;;6.53;4.97;;;24.40;99.90;;;;;;4994253;28;20829;-51
2023/08/01 12:34:30;;;;;;;3.70;3.40;;;24.40;99.90;;;;;;4994948;28;20447;-50
2023/08/01 12:36:56;;;;;;;4.97;3.80;;;24.20;99.90;;;;;;4994865;28;20437;-51
2023/08/01 12:39:25;;;;;;;4.50;3.20;;;24.50;99.90;;;;;;4993524;28;20956;-50
2023/08/01 12:41:52;;;;;;;5.90;3.57;;;23.80;99.90;;;;;;4994431;28;20468;-51
2023/08/01 12:44:19;;;;;;;9.83;4.17;;;24.20;99.90;;;;;;4994943;28;20443;-51
2023/08/01 12:46:45;;;;;;;3.93;3.37;;;24.30;99.90;;;;;;4995084;28;20429;-51